Time;durP1;ratioP1;P1;durP2;ratioP2;P2;SDS_P1;SDS_P2;PMS_P1;PMS_P2;Temp;Humidity;BMP_temperature;BMP_pressure;BME280_temperature;BME280_humidity;BME280_pressure;Samples;Min_cycle;Max_cycle;Signal;HPM_P1;HPM_P2
2021/12/06 00:02:24;;;;;;;6.03;2.00;;;;;;;;;;5082505;28;20075;-74
2021/12/06 00:04:49;;;;;;;7.68;1.98;;;;;;;;;;5084242;28;20128;-75
2021/12/06 00:07:21;;;;;;;6.30;1.70;;;;;;;;;;5082525;28;20056;-75
2021/12/06 00:09:47;;;;;;;4.35;1.40;;;;;;;;;;5074707;28;20040;-74
2021/12/06 00:12:14;;;;;;;4.55;1.55;;;;;;;;;;5072427;28;20044;-75
2021/12/06 00:14:41;;;;;;;9.40;2.10;;;;;;;;;;5055616;28;20118;-73
2021/12/06 00:17:08;;;;;;;6.15;1.90;;;;;;;;;;5072212;28;20036;-75
2021/12/06 00:19:34;;;;;;;10.82;2.03;;;;;;;;;;5072749;28;20384;-75
2021/12/06 00:22:01;;;;;;;7.13;1.85;;;;;;;;;;5073391;28;20029;-76
2021/12/06 00:24:26;;;;;;;8.95;1.77;;;;;;;;;;5054907;28;20106;-76
2021/12/06 00:26:52;;;;;;;6.07;2.08;;;;;;;;;;5073302;28;20445;-75
2021/12/06 00:29:18;;;;;;;4.30;1.73;;;;;;;;;;5072244;28;20071;-75
2021/12/06 00:31:45;;;;;;;8.93;2.00;;;;;;;;;;5072302;28;20361;-74
2021/12/06 00:34:14;;;;;;;6.18;1.80;;;;;;;;;;5072032;28;20503;-73
2021/12/06 00:36:51;;;;;;;7.20;2.08;;;;;;;;;;5072001;28;20029;-75
2021/12/06 00:39:17;;;;;;;6.45;2.03;;;;;;;;;;5073473;28;20037;-74
2021/12/06 00:41:42;;;;;;;8.55;1.88;;;;;;;;;;5073084;28;20028;-77
2021/12/06 00:44:08;;;;;;;5.15;1.48;;;;;;;;;;5071783;28;20075;-77
2021/12/06 00:46:35;;;;;;;8.20;1.30;;;;;;;;;;5073169;28;20029;-76
2021/12/06 00:49:01;;;;;;;4.72;1.20;;;;;;;;;;5072948;28;20044;-75
2021/12/06 00:51:27;;;;;;;5.00;1.40;;;;;;;;;;5071575;28;20044;-75
2021/12/06 00:53:52;;;;;;;7.05;2.15;;;;;;;;;;5073084;28;20036;-76
2021/12/06 00:56:18;;;;;;;6.80;2.05;;;;;;;;;;5071738;28;20033;-76
2021/12/06 00:58:44;;;;;;;6.38;2.20;;;;;;;;;;5071587;28;20127;-76
2021/12/06 01:01:11;;;;;;;5.63;1.80;;;;;;;;;;5072978;28;20117;-75
2021/12/06 01:03:39;;;;;;;6.15;1.88;;;;;;;;;;5072673;28;20035;-75
2021/12/06 01:06:05;;;;;;;13.57;2.42;;;;;;;;;;5072888;28;20109;-75
2021/12/06 01:08:31;;;;;;;4.82;1.88;;;;;;;;;;5073183;28;20040;-76
2021/12/06 01:10:59;;;;;;;6.07;1.52;;;;;;;;;;5072649;28;20048;-77
2021/12/06 01:13:25;;;;;;;4.53;1.27;;;;;;;;;;5072819;28;20036;-76
2021/12/06 01:15:52;;;;;;;5.22;1.52;;;;;;;;;;5072662;28;20036;-75
2021/12/06 01:18:18;;;;;;;4.65;1.65;;;;;;;;;;5071114;28;20040;-74
2021/12/06 01:21:12;;;;;;;6.22;1.55;;;;;;;;;;5071042;28;20036;-75
2021/12/06 01:23:47;;;;;;;6.65;1.33;;;;;;;;;;5070661;28;20044;-74
2021/12/06 01:31:52;;;;;;;4.38;1.90;;;;;;;;;;5070193;28;20060;-76
2021/12/06 01:39:54;;;;;;;4.15;1.63;;;;;;;;;;5071272;28;20047;-74
2021/12/06 01:42:20;;;;;;;7.25;2.20;;;;;;;;;;5072416;28;20040;-75
2021/12/06 01:44:48;;;;;;;9.00;2.10;;;;;;;;;;5070524;28;20028;-74
2021/12/06 01:47:29;;;;;;;8.93;2.33;;;;;;;;;;5055199;28;20039;-75
2021/12/06 01:50:00;;;;;;;7.57;1.90;;;;;;;;;;5070967;28;20464;-74
2021/12/06 01:52:33;;;;;;;7.32;2.63;;;;;;;;;;5072366;28;20877;-74
2021/12/06 01:55:00;;;;;;;9.23;2.20;;;;;;;;;;5054343;28;20037;-74
2021/12/06 01:57:27;;;;;;;12.15;2.55;;;;;;;;;;5070911;28;20266;-76
2021/12/06 01:59:53;;;;;;;8.07;2.15;;;;;;;;;;5070743;28;20484;-73
2021/12/06 02:02:19;;;;;;;9.13;2.25;;;;;;;;;;5070729;28;20043;-75
2021/12/06 02:04:44;;;;;;;5.18;2.03;;;;;;;;;;5070600;28;20554;-75
2021/12/06 02:07:14;;;;;;;4.78;1.98;;;;;;;;;;5070590;28;20020;-74
2021/12/06 02:09:42;;;;;;;8.13;1.83;;;;;;;;;;5054090;28;20086;-74
2021/12/06 02:12:10;;;;;;;7.25;2.20;;;;;;;;;;5070653;28;20090;-74
2021/12/06 02:17:22;;;;;;;7.25;2.53;;;;;;;;;;5070672;28;20500;-75
2021/12/06 02:19:50;;;;;;;5.03;2.00;;;;;;;;;;5070702;28;20036;-75
2021/12/06 02:22:18;;;;;;;4.78;2.00;;;;;;;;;;5037311;28;20047;-74
2021/12/06 02:24:44;;;;;;;4.15;2.30;;;;;;;;;;5072022;28;20369;-74
2021/12/06 02:27:11;;;;;;;9.25;2.67;;;;;;;;;;5053841;28;20111;-73
2021/12/06 02:29:37;;;;;;;6.88;2.53;;;;;;;;;;5053767;28;20028;-74
2021/12/06 02:32:09;;;;;;;9.25;2.88;;;;;;;;;;5053689;28;20396;-75
2021/12/06 02:34:36;;;;;;;5.97;2.40;;;;;;;;;;5070504;28;20036;-75
2021/12/06 02:37:02;;;;;;;8.45;2.55;;;;;;;;;;5070287;28;20040;-74
2021/12/06 02:39:29;;;;;;;7.97;2.20;;;;;;;;;;5070083;28;20488;-75
2021/12/06 02:41:56;;;;;;;7.95;2.33;;;;;;;;;;5070924;28;20036;-74
2021/12/06 02:44:22;;;;;;;6.95;2.45;;;;;;;;;;5073846;28;20090;-74
2021/12/06 02:46:48;;;;;;;8.43;2.85;;;;;;;;;;5073798;28;20033;-74
2021/12/06 02:49:14;;;;;;;10.10;2.47;;;;;;;;;;5073786;28;20028;-75
2021/12/06 02:51:41;;;;;;;10.85;2.83;;;;;;;;;;5075246;28;20349;-75
2021/12/06 02:54:06;;;;;;;8.32;2.80;;;;;;;;;;5073552;28;20115;-76
2021/12/06 02:56:39;;;;;;;7.63;2.47;;;;;;;;;;5073551;28;20545;-74
2021/12/06 02:59:08;;;;;;;6.35;3.20;;;;;;;;;;5073360;28;20479;-75
2021/12/06 03:01:37;;;;;;;8.53;2.60;;;;;;;;;;5073652;28;20040;-76
2021/12/06 03:04:05;;;;;;;10.55;2.72;;;;;;;;;;5073324;28;20032;-75
2021/12/06 03:06:31;;;;;;;6.25;2.20;;;;;;;;;;5073429;28;20459;-74
2021/12/06 03:09:05;;;;;;;8.98;2.50;;;;;;;;;;5073269;28;20055;-76
2021/12/06 03:11:43;;;;;;;7.82;2.20;;;;;;;;;;5073457;28;20077;-74
2021/12/06 03:14:10;;;;;;;6.15;1.90;;;;;;;;;;5056599;28;20036;-75
2021/12/06 03:16:36;;;;;;;6.53;2.20;;;;;;;;;;5073183;28;20097;-75
2021/12/06 03:19:04;;;;;;;8.30;2.67;;;;;;;;;;5073400;28;20044;-75
2021/12/06 03:21:31;;;;;;;9.15;1.85;;;;;;;;;;5056336;28;20041;-75
2021/12/06 03:23:57;;;;;;;4.85;1.55;;;;;;;;;;5073257;28;20042;-75
2021/12/06 03:26:24;;;;;;;6.50;1.73;;;;;;;;;;5074351;28;20107;-74
2021/12/06 03:28:50;;;;;;;6.75;1.95;;;;;;;;;;5074481;28;20038;-74
2021/12/06 03:31:18;;;;;;;6.55;2.15;;;;;;;;;;5073005;28;20041;-75
2021/12/06 03:33:46;;;;;;;5.22;1.70;;;;;;;;;;5073113;28;20067;-75
2021/12/06 03:36:14;;;;;;;5.53;1.83;;;;;;;;;;5072637;28;20127;-73
2021/12/06 03:38:41;;;;;;;7.05;2.55;;;;;;;;;;5073148;28;20541;-76
2021/12/06 03:41:07;;;;;;;7.32;2.10;;;;;;;;;;5084728;28;20036;-74
2021/12/06 03:43:34;;;;;;;6.53;1.73;;;;;;;;;;5092975;28;20044;-75
2021/12/06 03:45:59;;;;;;;4.35;1.67;;;;;;;;;;5093032;28;20039;-75
2021/12/06 03:48:25;;;;;;;5.15;1.90;;;;;;;;;;5093105;28;20395;-75
2021/12/06 03:50:51;;;;;;;4.75;1.90;;;;;;;;;;5092769;28;20028;-75
2021/12/06 03:53:17;;;;;;;7.85;1.80;;;;;;;;;;5092265;28;20063;-75
2021/12/06 03:55:43;;;;;;;5.68;1.33;;;;;;;;;;5092852;28;20568;-76
2021/12/06 03:58:09;;;;;;;4.20;1.48;;;;;;;;;;5076034;28;20040;-75
2021/12/06 04:00:35;;;;;;;5.10;1.30;;;;;;;;;;5092873;28;20024;-75
2021/12/06 04:03:01;;;;;;;6.70;1.88;;;;;;;;;;5087704;28;20471;-76
2021/12/06 04:05:28;;;;;;;4.13;1.60;;;;;;;;;;5071810;28;20035;-77
2021/12/06 04:07:54;;;;;;;7.68;1.90;;;;;;;;;;5088998;28;20096;-77
2021/12/06 04:10:20;;;;;;;5.43;2.28;;;;;;;;;;5088945;28;20032;-76
2021/12/06 04:12:45;;;;;;;5.68;1.90;;;;;;;;;;5088352;28;20036;-76
2021/12/06 04:15:14;;;;;;;4.53;1.50;;;;;;;;;;5088778;28;20027;-76
2021/12/06 04:17:40;;;;;;;5.82;1.70;;;;;;;;;;5071644;28;20032;-76
2021/12/06 04:20:08;;;;;;;3.58;1.52;;;;;;;;;;5071493;28;20101;-75
2021/12/06 04:22:33;;;;;;;6.43;1.70;;;;;;;;;;5071588;28;20089;-75
2021/12/06 04:25:02;;;;;;;4.88;1.75;;;;;;;;;;5088181;28;20043;-75
2021/12/06 04:27:29;;;;;;;2.28;1.23;;;;;;;;;;5071380;28;20040;-75
2021/12/06 04:29:56;;;;;;;5.85;2.08;;;;;;;;;;5073162;28;20032;-75
2021/12/06 04:32:22;;;;;;;6.38;1.95;;;;;;;;;;5089742;28;20062;-74
2021/12/06 04:34:48;;;;;;;4.47;1.63;;;;;;;;;;5089168;28;20028;-75
2021/12/06 04:37:14;;;;;;;6.63;2.00;;;;;;;;;;5089771;28;20388;-75
2021/12/06 04:39:40;;;;;;;2.85;1.30;;;;;;;;;;5071487;28;20036;-75
2021/12/06 04:42:07;;;;;;;6.32;1.88;;;;;;;;;;5088216;28;20067;-75
2021/12/06 04:44:32;;;;;;;6.07;1.52;;;;;;;;;;5071085;28;20115;-74
2021/12/06 04:46:59;;;;;;;9.00;2.88;;;;;;;;;;5087784;28;20468;-75
2021/12/06 04:49:27;;;;;;;5.38;2.00;;;;;;;;;;5088256;28;20081;-75
2021/12/06 04:51:56;;;;;;;7.97;2.10;;;;;;;;;;5089572;28;20044;-75
2021/12/06 04:54:25;;;;;;;6.60;2.00;;;;;;;;;;5087927;28;20024;-74
2021/12/06 04:56:51;;;;;;;;;;;;;;;;;;5071321;28;20088;-75
2021/12/06 04:59:43;;;;;;;5.07;2.13;;;;;;;;;;5088010;28;19916;-76
2021/12/06 05:02:16;;;;;;;5.03;2.35;;;;;;;;;;5084985;28;20044;-76
2021/12/06 05:04:47;;;;;;;7.43;2.25;;;;;;;;;;5070509;28;20100;-76
2021/12/06 05:07:22;;;;;;;6.63;2.22;;;;;;;;;;5088030;28;20063;-76
2021/12/06 05:09:49;;;;;;;6.78;2.28;;;;;;;;;;5071041;28;20038;-76
2021/12/06 05:12:19;;;;;;;7.35;2.20;;;;;;;;;;5087814;28;20046;-75
2021/12/06 05:14:45;;;;;;;7.70;2.60;;;;;;;;;;5070594;28;20115;-76
2021/12/06 05:17:12;;;;;;;4.18;2.35;;;;;;;;;;5087916;28;20044;-76
2021/12/06 05:19:38;;;;;;;8.52;2.65;;;;;;;;;;5070927;28;20482;-74
2021/12/06 05:22:06;;;;;;;5.40;2.42;;;;;;;;;;5070562;28;20036;-75
2021/12/06 05:24:33;;;;;;;6.07;2.55;;;;;;;;;;5054044;28;20509;-76
2021/12/06 05:26:59;;;;;;;7.35;2.90;;;;;;;;;;5087373;28;20130;-76
2021/12/06 05:29:29;;;;;;;6.97;3.13;;;;;;;;;;5070833;28;20039;-76
2021/12/06 05:31:57;;;;;;;7.78;3.70;;;;;;;;;;5070839;28;20035;-76
2021/12/06 05:34:30;;;;;;;9.20;3.13;;;;;;;;;;5054530;28;20054;-78
2021/12/06 05:36:56;;;;;;;9.15;2.78;;;;;;;;;;5070599;28;20113;-77
2021/12/06 05:39:22;;;;;;;8.80;3.00;;;;;;;;;;5088588;28;20063;-77
2021/12/06 05:41:47;;;;;;;4.93;2.65;;;;;;;;;;5087613;28;20040;-77
2021/12/06 05:44:13;;;;;;;9.15;3.15;;;;;;;;;;5088550;28;20028;-76
2021/12/06 05:46:38;;;;;;;7.47;2.97;;;;;;;;;;5088580;28;20388;-74
2021/12/06 05:49:04;;;;;;;5.75;2.90;;;;;;;;;;5088692;28;20028;-75
2021/12/06 05:51:30;;;;;;;7.78;3.13;;;;;;;;;;5088554;28;20395;-76
2021/12/06 05:53:55;;;;;;;7.78;3.20;;;;;;;;;;5087420;28;20028;-76
2021/12/06 05:56:21;;;;;;;9.15;3.42;;;;;;;;;;5088483;28;20043;-75
2021/12/06 05:58:47;;;;;;;5.85;2.80;;;;;;;;;;5070039;28;20028;-76
2021/12/06 06:01:13;;;;;;;6.93;3.08;;;;;;;;;;5088342;28;20488;-76
2021/12/06 06:03:39;;;;;;;6.25;2.85;;;;;;;;;;5088567;28;20027;-75
2021/12/06 06:06:04;;;;;;;7.28;3.10;;;;;;;;;;5086888;28;20047;-75
2021/12/06 06:08:30;;;;;;;5.32;2.92;;;;;;;;;;5088310;28;20383;-77
2021/12/06 06:10:56;;;;;;;6.28;3.10;;;;;;;;;;5088096;28;20580;-77
2021/12/06 06:13:22;;;;;;;6.60;3.13;;;;;;;;;;5088312;28;20032;-75
2021/12/06 06:15:50;;;;;;;9.18;4.10;;;;;;;;;;5088315;28;20032;-75
2021/12/06 06:18:16;;;;;;;6.85;3.65;;;;;;;;;;5090935;28;20047;-76
2021/12/06 06:20:42;;;;;;;7.38;3.25;;;;;;;;;;5091730;28;20028;-75
2021/12/06 06:23:07;;;;;;;6.18;3.38;;;;;;;;;;5092051;28;20187;-76
2021/12/06 06:25:33;;;;;;;9.93;4.30;;;;;;;;;;5091327;28;20036;-76
2021/12/06 06:27:59;;;;;;;9.95;4.00;;;;;;;;;;5090962;28;20187;-76
2021/12/06 06:30:25;;;;;;;12.48;4.70;;;;;;;;;;5091664;28;20033;-75
2021/12/06 06:32:51;;;;;;;7.85;3.70;;;;;;;;;;5091712;28;20463;-75
2021/12/06 06:35:17;;;;;;;8.95;4.65;;;;;;;;;;5062642;28;20898;-75
2021/12/06 06:37:42;;;;;;;12.38;5.38;;;;;;;;;;5069647;28;20036;-75
2021/12/06 06:40:09;;;;;;;10.45;4.35;;;;;;;;;;5071040;28;20033;-74
2021/12/06 06:42:35;;;;;;;9.05;5.28;;;;;;;;;;5069615;28;20028;-76
2021/12/06 06:45:01;;;;;;;13.02;6.97;;;;;;;;;;5071148;28;20028;-75
2021/12/06 06:47:26;;;;;;;9.27;6.10;;;;;;;;;;5071241;28;20553;-76
2021/12/06 06:49:52;;;;;;;9.75;4.90;;;;;;;;;;5071191;28;20539;-76
2021/12/06 06:52:18;;;;;;;10.10;5.15;;;;;;;;;;5071017;28;20388;-77
2021/12/06 06:54:44;;;;;;;7.63;5.15;;;;;;;;;;5070838;28;20024;-76
2021/12/06 06:57:10;;;;;;;9.18;4.95;;;;;;;;;;5070835;28;20028;-75
2021/12/06 06:59:35;;;;;;;7.47;4.75;;;;;;;;;;5071386;28;20035;-74
2021/12/06 07:02:01;;;;;;;9.80;5.50;;;;;;;;;;5069565;28;20036;-76
2021/12/06 07:04:27;;;;;;;7.18;4.70;;;;;;;;;;5070790;28;20040;-77
2021/12/06 07:06:53;;;;;;;6.35;4.47;;;;;;;;;;5070917;28;20480;-77
2021/12/06 07:09:19;;;;;;;8.85;4.30;;;;;;;;;;5069157;28;20075;-76
2021/12/06 07:11:46;;;;;;;9.52;4.80;;;;;;;;;;5070707;28;20064;-76
2021/12/06 07:14:12;;;;;;;8.05;5.18;;;;;;;;;;5070907;28;20039;-76
2021/12/06 07:16:38;;;;;;;10.38;5.45;;;;;;;;;;5052301;28;20040;-75
2021/12/06 07:19:03;;;;;;;11.15;6.00;;;;;;;;;;5071099;28;20102;-76
2021/12/06 07:21:29;;;;;;;9.98;6.22;;;;;;;;;;5070632;28;20028;-75
2021/12/06 07:23:55;;;;;;;10.32;6.30;;;;;;;;;;5070383;28;20039;-76
2021/12/06 07:26:20;;;;;;;13.13;6.93;;;;;;;;;;5069381;28;20040;-76
2021/12/06 07:28:48;;;;;;;11.90;6.78;;;;;;;;;;5068984;28;20089;-75
2021/12/06 07:31:14;;;;;;;12.70;6.60;;;;;;;;;;5070770;28;20045;-76
2021/12/06 07:33:46;;;;;;;10.77;6.10;;;;;;;;;;5069043;28;20057;-76
2021/12/06 07:36:12;;;;;;;12.05;6.50;;;;;;;;;;5070426;28;20128;-76
2021/12/06 07:38:39;;;;;;;14.20;6.25;;;;;;;;;;5068721;28;20119;-74
2021/12/06 07:41:09;;;;;;;8.73;5.75;;;;;;;;;;5070401;28;20078;-77
2021/12/06 07:43:35;;;;;;;13.30;5.53;;;;;;;;;;5076225;28;20031;-75
2021/12/06 07:46:00;;;;;;;9.63;5.18;;;;;;;;;;5075006;28;20446;-77
2021/12/06 07:48:26;;;;;;;9.90;4.95;;;;;;;;;;5088244;28;20119;-75
2021/12/06 07:50:52;;;;;;;10.20;4.60;;;;;;;;;;5089797;28;20067;-78
2021/12/06 07:53:18;;;;;;;13.50;4.95;;;;;;;;;;5090137;28;20038;-79
2021/12/06 07:55:44;;;;;;;10.52;4.82;;;;;;;;;;5088951;28;20543;-77
2021/12/06 07:58:09;;;;;;;10.68;5.28;;;;;;;;;;5087884;28;20032;-72
2021/12/06 08:00:37;;;;;;;10.00;3.42;;;;;;;;;;5086364;28;20046;-73
2021/12/06 08:03:03;;;;;;;10.98;4.32;;;;;;;;;;5086565;28;20043;-76
2021/12/06 08:05:35;;;;;;;7.03;3.65;;;;;;;;;;5085817;28;20540;-74
2021/12/06 08:08:08;;;;;;;8.10;3.95;;;;;;;;;;5085020;28;20654;-75
2021/12/06 08:10:36;;;;;;;11.02;4.22;;;;;;;;;;5085476;28;20105;-74
2021/12/06 08:13:02;;;;;;;10.50;4.65;;;;;;;;;;5088777;28;20039;-76
2021/12/06 08:15:27;;;;;;;12.18;5.63;;;;;;;;;;5089551;28;20146;-73
2021/12/06 08:17:53;;;;;;;13.30;5.93;;;;;;;;;;5089752;28;20032;-77
2021/12/06 08:20:19;;;;;;;11.95;4.60;;;;;;;;;;5087281;28;20043;-76
2021/12/06 08:22:44;;;;;;;8.90;4.18;;;;;;;;;;5089448;28;20012;-74
2021/12/06 08:25:14;;;;;;;6.93;3.80;;;;;;;;;;5089669;28;20399;-76
2021/12/06 08:27:40;;;;;;;10.27;4.47;;;;;;;;;;5071483;28;20131;-74
2021/12/06 08:30:06;;;;;;;9.48;3.95;;;;;;;;;;5089842;28;20139;-76
2021/12/06 08:32:32;;;;;;;11.25;3.30;;;;;;;;;;5088599;28;20028;-78
2021/12/06 08:34:58;;;;;;;6.32;3.72;;;;;;;;;;5089550;28;20418;-75
2021/12/06 08:37:26;;;;;;;9.52;3.95;;;;;;;;;;5089625;28;20069;-75
2021/12/06 08:39:51;;;;;;;7.85;4.55;;;;;;;;;;5089310;28;20032;-75
2021/12/06 08:42:17;;;;;;;9.25;5.13;;;;;;;;;;5088291;28;20051;-76
2021/12/06 08:44:43;;;;;;;7.53;4.28;;;;;;;;;;5087900;28;20085;-74
2021/12/06 08:47:08;;;;;;;11.13;4.82;;;;;;;;;;5088779;28;20082;-76
2021/12/06 08:49:34;;;;;;;10.43;4.75;;;;;;;;;;5089369;28;20024;-76
2021/12/06 08:52:00;;;;;;;10.57;5.05;;;;;;;;;;5089321;28;20024;-76
2021/12/06 08:54:27;;;;;;;9.93;4.10;;;;;;;;;;5089424;28;20040;-75
2021/12/06 08:56:53;;;;;;;13.68;4.07;;;;;;;;;;5088845;28;20111;-74
2021/12/06 08:59:19;;;;;;;12.32;3.83;;;;;;;;;;5089423;28;20039;-76
2021/12/06 09:01:44;;;;;;;7.13;4.15;;;;;;;;;;5088073;28;20032;-75
2021/12/06 09:04:12;;;;;;;14.82;4.18;;;;;;;;;;5078407;28;20051;-76
2021/12/06 09:06:43;;;;;;;16.58;5.00;;;;;;;;;;5068161;28;20162;-74
2021/12/06 09:09:12;;;;;;;10.57;5.50;;;;;;;;;;5072452;28;20068;-75
2021/12/06 09:11:38;;;;;;;13.68;5.05;;;;;;;;;;5068595;28;20032;-72
2021/12/06 09:14:04;;;;;;;12.48;4.95;;;;;;;;;;5068523;28;20107;-73
2021/12/06 09:16:47;;;;;;;11.52;4.82;;;;;;;;;;5075955;28;20556;-71
2021/12/06 09:19:35;;;;;;;;;;;;;;;;;;5094217;28;20145;-70
2021/12/06 09:22:03;;;;;;;17.83;5.53;;;;;;;;;;5078160;28;20561;-74
2021/12/06 09:24:29;;;;;;;13.50;6.15;;;;;;;;;;5080713;28;20032;-73
2021/12/06 09:26:55;;;;;;;10.60;6.40;;;;;;;;;;5074725;28;20480;-66
2021/12/06 09:29:24;;;;;;;13.52;4.55;;;;;;;;;;5087108;28;20028;-64
2021/12/06 09:31:51;;;;;;;12.88;5.70;;;;;;;;;;5083315;28;20043;-65
2021/12/06 09:34:17;;;;;;;14.52;5.40;;;;;;;;;;5087061;28;20035;-66
2021/12/06 09:36:42;;;;;;;14.27;5.90;;;;;;;;;;5087801;28;20036;-66
2021/12/06 09:39:08;;;;;;;11.90;5.65;;;;;;;;;;5087908;28;20087;-65
2021/12/06 09:41:34;;;;;;;13.10;5.63;;;;;;;;;;5088141;28;20363;-66
2021/12/06 09:44:02;;;;;;;17.83;7.63;;;;;;;;;;5087908;28;20439;-66
2021/12/06 09:46:33;;;;;;;12.25;7.03;;;;;;;;;;5088610;28;20102;-64
2021/12/06 09:48:59;;;;;;;11.23;6.20;;;;;;;;;;5088248;28;20047;-66
2021/12/06 09:51:31;;;;;;;15.52;6.82;;;;;;;;;;5077847;28;20878;-65
2021/12/06 09:53:57;;;;;;;10.90;5.80;;;;;;;;;;5067946;28;20041;-65
2021/12/06 09:56:42;;;;;;;14.23;6.32;;;;;;;;;;5067897;28;20028;-63
2021/12/06 09:59:10;;;;;;;11.10;6.20;;;;;;;;;;5067187;28;20083;-64
2021/12/06 10:01:37;;;;;;;13.05;6.22;;;;;;;;;;5067157;28;20039;-64
2021/12/06 10:04:06;;;;;;;11.27;5.78;;;;;;;;;;5067878;28;20036;-64
2021/12/06 10:06:32;;;;;;;12.05;5.47;;;;;;;;;;5067983;28;20040;-64
2021/12/06 10:08:59;;;;;;;8.80;4.57;;;;;;;;;;5067809;28;20071;-65
2021/12/06 10:11:25;;;;;;;11.43;5.43;;;;;;;;;;5067703;28;20479;-63
2021/12/06 10:13:51;;;;;;;13.48;5.05;;;;;;;;;;5067830;28;20590;-64
2021/12/06 10:16:18;;;;;;;9.23;4.53;;;;;;;;;;5067672;28;20476;-63
2021/12/06 10:18:44;;;;;;;8.18;4.60;;;;;;;;;;5049862;28;20032;-64
2021/12/06 10:21:09;;;;;;;7.60;4.38;;;;;;;;;;5067762;28;20365;-65
2021/12/06 10:23:37;;;;;;;9.43;4.18;;;;;;;;;;5071487;28;20059;-65
2021/12/06 10:26:05;;;;;;;10.20;4.72;;;;;;;;;;5082321;28;20044;-64
2021/12/06 10:28:31;;;;;;;16.58;4.40;;;;;;;;;;5071250;28;20083;-64
2021/12/06 10:31:03;;;;;;;11.50;4.38;;;;;;;;;;5086966;28;20082;-65
2021/12/06 10:33:31;;;;;;;10.65;4.30;;;;;;;;;;5087788;28;20043;-64
2021/12/06 10:35:59;;;;;;;9.60;4.30;;;;;;;;;;5080574;28;20153;-63
2021/12/06 10:38:27;;;;;;;6.65;4.22;;;;;;;;;;5087579;28;20093;-65
2021/12/06 10:40:58;;;;;;;7.82;3.83;;;;;;;;;;5087766;28;20024;-64
2021/12/06 10:43:23;;;;;;;12.90;3.83;;;;;;;;;;5087474;28;20154;-67
2021/12/06 10:45:49;;;;;;;9.52;4.47;;;;;;;;;;5087369;28;20103;-63
2021/12/06 10:48:18;;;;;;;13.10;4.70;;;;;;;;;;5087688;28;20044;-64
2021/12/06 10:50:54;;;;;;;20.70;5.40;;;;;;;;;;5087565;28;20467;-66
2021/12/06 10:53:22;;;;;;;10.40;4.50;;;;;;;;;;5087617;28;20047;-64
2021/12/06 10:55:51;;;;;;;10.65;4.70;;;;;;;;;;5087494;28;20467;-64
2021/12/06 10:58:17;;;;;;;12.00;4.57;;;;;;;;;;5087695;28;20063;-64
2021/12/06 11:00:46;;;;;;;8.43;4.47;;;;;;;;;;5087597;28;20483;-64
2021/12/06 11:03:19;;;;;;;17.02;4.70;;;;;;;;;;5083529;28;20082;-64
2021/12/06 11:05:48;;;;;;;10.13;4.72;;;;;;;;;;5077100;28;20068;-65
2021/12/06 11:08:14;;;;;;;10.97;4.80;;;;;;;;;;5079373;28;20102;-64
2021/12/06 11:10:45;;;;;;;11.52;5.00;;;;;;;;;;5066711;28;20120;-64
2021/12/06 11:13:15;;;;;;;9.93;5.50;;;;;;;;;;5068728;28;20086;-66
2021/12/06 11:15:53;;;;;;;13.45;5.65;;;;;;;;;;5068648;28;20033;-66
2021/12/06 11:18:36;;;;;;;12.20;4.72;;;;;;;;;;5073241;28;20056;-67
2021/12/06 11:21:03;;;;;;;13.30;5.15;;;;;;;;;;5088387;28;20043;-65
2021/12/06 11:23:28;;;;;;;13.55;5.80;;;;;;;;;;5088471;28;20031;-63
2021/12/06 11:25:55;;;;;;;12.73;5.13;;;;;;;;;;5088444;28;20115;-66
2021/12/06 11:28:25;;;;;;;10.88;4.78;;;;;;;;;;5086766;28;20127;-64
2021/12/06 11:30:50;;;;;;;;;;;;;;;;;;5088334;28;20110;-66
2021/12/06 11:33:25;;;;;;;10.33;4.33;;;;;;;;;;5088403;28;20061;-64
2021/12/06 11:35:50;;;;;;;11.10;4.07;;;;;;;;;;5090293;28;20258;-67
2021/12/06 11:38:18;;;;;;;15.50;5.32;;;;;;;;;;5090285;28;20031;-64
2021/12/06 11:40:43;;;;;;;11.65;5.07;;;;;;;;;;5090166;28;20780;-66
2021/12/06 11:43:13;;;;;;;10.68;4.50;;;;;;;;;;5071857;28;20043;-64
2021/12/06 11:45:40;;;;;;;9.50;4.78;;;;;;;;;;5082497;28;20047;-64
2021/12/06 11:48:05;;;;;;;12.25;5.38;;;;;;;;;;5089341;28;20036;-65
2021/12/06 11:50:31;;;;;;;9.73;4.90;;;;;;;;;;5090121;28;20050;-65
2021/12/06 11:53:02;;;;;;;9.02;4.60;;;;;;;;;;5089398;28;20425;-64
2021/12/06 11:55:29;;;;;;;10.80;5.25;;;;;;;;;;5090063;28;20479;-64
2021/12/06 11:57:54;;;;;;;13.10;4.93;;;;;;;;;;5089834;28;20039;-64
2021/12/06 12:00:21;;;;;;;10.65;5.70;;;;;;;;;;5089730;28;20032;-66
2021/12/06 12:02:48;;;;;;;12.15;5.72;;;;;;;;;;5089545;28;20051;-66
2021/12/06 12:05:19;;;;;;;10.57;5.03;;;;;;;;;;5090013;28;20487;-65
2021/12/06 12:07:54;;;;;;;11.98;4.68;;;;;;;;;;5089822;28;20032;-66
2021/12/06 12:10:49;;;;;;;10.80;4.00;;;;;;;;;;5072328;28;20051;-65
2021/12/06 12:13:22;;;;;;;11.57;3.55;;;;;;;;;;5060442;28;20122;-65
2021/12/06 12:15:48;;;;;;;6.32;2.60;;;;;;;;;;5068394;28;20028;-66
2021/12/06 12:18:13;;;;;;;4.03;2.25;;;;;;;;;;5069532;28;20101;-64
2021/12/06 12:20:39;;;;;;;7.15;2.72;;;;;;;;;;5068948;28;20099;-63
2021/12/06 12:23:07;;;;;;;7.53;2.80;;;;;;;;;;5068924;28;20463;-64
2021/12/06 12:25:36;;;;;;;5.32;2.80;;;;;;;;;;5051351;28;20090;-64
2021/12/06 12:28:37;;;;;;;6.22;3.10;;;;;;;;;;5068995;28;20036;-65
2021/12/06 12:30:57;;;;;;;7.57;4.20;;;;;;;;;;5065760;28;20049;-63
2021/12/06 12:33:22;;;;;;;9.45;4.05;;;;;;;;;;5068701;28;20025;-66
2021/12/06 12:35:50;;;;;;;10.75;3.72;;;;;;;;;;5069201;28;20044;-64
2021/12/06 12:38:18;;;;;;;7.57;3.83;;;;;;;;;;5068877;28;20086;-65
2021/12/06 12:40:45;;;;;;;8.07;3.88;;;;;;;;;;5080389;28;20024;-64
2021/12/06 12:43:15;;;;;;;6.38;3.58;;;;;;;;;;5068022;28;20035;-64
2021/12/06 12:45:43;;;;;;;6.97;3.47;;;;;;;;;;5076702;28;20472;-64
2021/12/06 12:48:09;;;;;;;9.30;4.28;;;;;;;;;;5088164;28;20027;-66
2021/12/06 12:50:35;;;;;;;8.43;4.47;;;;;;;;;;5088099;28;20152;-66
2021/12/06 12:53:06;;;;;;;10.38;4.50;;;;;;;;;;5088589;28;20098;-64
2021/12/06 12:55:43;;;;;;;6.05;3.42;;;;;;;;;;5087561;28;20024;-65
2021/12/06 12:58:16;;;;;;;9.43;4.40;;;;;;;;;;5087823;28;20075;-65
2021/12/06 13:00:46;;;;;;;9.13;4.43;;;;;;;;;;5087943;28;20475;-66
2021/12/06 13:03:30;;;;;;;5.75;3.42;;;;;;;;;;5089284;28;20119;-64
2021/12/06 13:06:22;;;;;;;10.27;4.85;;;;;;;;;;5088747;28;20468;-65
2021/12/06 13:08:54;;;;;;;9.80;4.68;;;;;;;;;;5084424;28;20050;-65
2021/12/06 13:11:20;;;;;;;8.32;4.43;;;;;;;;;;5089197;28;20039;-64
2021/12/06 13:13:50;;;;;;;7.85;4.22;;;;;;;;;;5088785;28;20409;-63
2021/12/06 13:16:48;;;;;;;6.18;3.35;;;;;;;;;;5088946;28;20040;-64
2021/12/06 13:21:53;;;;;;;8.00;3.72;;;;;;;;;;5089015;28;20905;-64
2021/12/06 13:24:19;;;;;;;6.88;4.57;;;;;;;;;;5088588;28;20360;-64
2021/12/06 13:26:47;;;;;;;9.77;4.00;;;;;;;;;;5088402;28;20054;-64
2021/12/06 13:29:14;;;;;;;7.35;3.90;;;;;;;;;;5089009;28;20468;-66
2021/12/06 13:31:40;;;;;;;6.75;4.03;;;;;;;;;;5087614;28;20036;-64
2021/12/06 13:34:20;;;;;;;8.07;4.15;;;;;;;;;;5087079;28;20039;-65
2021/12/06 13:36:55;;;;;;;7.35;3.97;;;;;;;;;;5088835;28;20063;-62
2021/12/06 13:39:33;;;;;;;9.05;4.13;;;;;;;;;;5088540;28;20036;-64
2021/12/06 13:42:05;;;;;;;8.35;4.03;;;;;;;;;;5087989;28;20550;-63
2021/12/06 13:44:49;;;;;;;7.70;4.38;;;;;;;;;;5086334;28;20043;-64
2021/12/06 13:47:16;;;;;;;8.20;4.80;;;;;;;;;;5086912;28;20047;-63
2021/12/06 13:49:54;;;;;;;9.38;4.68;;;;;;;;;;5086438;28;20036;-64
2021/12/06 13:52:38;;;;;;;15.20;5.38;;;;;;;;;;5086755;28;20044;-64
2021/12/06 13:55:27;;;;;;;8.40;4.72;;;;;;;;;;5085917;28;20028;-64
2021/12/06 13:58:10;;;;;;;10.85;5.07;;;;;;;;;;5086697;28;20449;-65
2021/12/06 14:00:47;;;;;;;10.30;4.90;;;;;;;;;;5086934;28;20503;-65
2021/12/06 14:03:36;;;;;;;10.27;4.60;;;;;;;;;;5088304;28;20036;-64
2021/12/06 14:06:06;;;;;;;6.72;4.28;;;;;;;;;;5086228;28;20043;-63
2021/12/06 14:08:31;;;;;;;11.38;5.30;;;;;;;;;;5088383;28;20036;-65
2021/12/06 14:10:57;;;;;;;8.88;4.80;;;;;;;;;;5087885;28;20545;-65
2021/12/06 14:13:26;;;;;;;8.15;4.65;;;;;;;;;;5070046;28;20495;-65
2021/12/06 14:15:54;;;;;;;8.63;4.72;;;;;;;;;;5087657;28;20020;-66
2021/12/06 14:18:23;;;;;;;8.93;5.35;;;;;;;;;;5088103;28;20038;-65
2021/12/06 14:20:57;;;;;;;8.05;4.63;;;;;;;;;;5087802;28;20048;-66
2021/12/06 14:23:23;;;;;;;12.57;4.97;;;;;;;;;;5088120;28;20093;-65
2021/12/06 14:25:52;;;;;;;8.35;4.57;;;;;;;;;;5087463;28;20470;-65
2021/12/06 14:28:18;;;;;;;8.60;4.20;;;;;;;;;;5086983;28;20059;-65
2021/12/06 14:30:44;;;;;;;7.72;4.38;;;;;;;;;;5087917;28;20016;-65
2021/12/06 14:33:09;;;;;;;10.80;5.15;;;;;;;;;;5086782;28;20124;-63
2021/12/06 14:35:35;;;;;;;10.55;4.75;;;;;;;;;;5087812;28;20052;-64
2021/12/06 14:38:01;;;;;;;9.95;5.00;;;;;;;;;;5086624;28;20072;-65
2021/12/06 14:40:26;;;;;;;8.18;5.43;;;;;;;;;;5091835;28;20052;-66
2021/12/06 14:42:52;;;;;;;9.75;5.07;;;;;;;;;;5090702;28;20071;-64
2021/12/06 14:45:19;;;;;;;9.68;5.57;;;;;;;;;;5088879;28;20043;-64
2021/12/06 14:47:48;;;;;;;11.23;5.70;;;;;;;;;;5091210;28;20056;-64
2021/12/06 14:50:34;;;;;;;14.60;5.18;;;;;;;;;;5090851;28;20036;-64
2021/12/06 14:53:04;;;;;;;9.25;4.60;;;;;;;;;;5091063;28;20406;-65
2021/12/06 14:58:03;;;;;;;10.73;5.40;;;;;;;;;;5091797;28;20050;-64
2021/12/06 15:00:31;;;;;;;11.02;5.65;;;;;;;;;;5092275;28;20028;-64
2021/12/06 15:03:02;;;;;;;10.98;5.15;;;;;;;;;;5091262;28;20116;-63
2021/12/06 15:05:33;;;;;;;11.05;5.32;;;;;;;;;;5091261;28;20443;-64
2021/12/06 15:08:02;;;;;;;10.75;4.68;;;;;;;;;;5091139;28;20061;-64